Time;durP1;ratioP1;P1;durP2;ratioP2;P2;SDS_P1;SDS_P2;PMS_P1;PMS_P2;Temp;Humidity;BMP_temperature;BMP_pressure;BME280_temperature;BME280_humidity;BME280_pressure;Samples;Min_cycle;Max_cycle;Signal;HPM_P1;HPM_P2
2022/03/28 00:01:21;;;;;;;14.30;9.88;;;7.40;87.40;;;;;;5078413;28;20055;-81
2022/03/28 00:03:46;;;;;;;17.15;9.60;;;7.40;87.70;;;;;;5064922;28;20035;-81
2022/03/28 00:06:12;;;;;;;10.50;7.80;;;7.30;87.80;;;;;;5061882;28;20040;-81
2022/03/28 00:08:38;;;;;;;10.40;8.40;;;7.40;87.70;;;;;;5078565;28;20036;-80
2022/03/28 00:11:08;;;;;;;14.30;9.48;;;7.30;87.80;;;;;;5061965;28;20044;-81
2022/03/28 00:13:35;;;;;;;12.93;9.02;;;7.40;87.40;;;;;;5061892;28;20043;-80
2022/03/28 00:16:01;;;;;;;14.30;7.82;;;7.30;88.00;;;;;;5078309;28;20503;-81
2022/03/28 00:18:27;;;;;;;9.90;7.15;;;7.30;87.80;;;;;;5062002;28;20052;-81
2022/03/28 00:20:54;;;;;;;11.90;7.25;;;7.30;87.90;;;;;;5078043;28;20040;-81
2022/03/28 00:23:20;;;;;;;5.80;5.20;;;7.30;87.60;;;;;;5061649;28;20036;-81
2022/03/28 00:25:46;;;;;;;10.80;7.32;;;7.30;87.10;;;;;;5078326;28;20109;-80
2022/03/28 00:28:13;;;;;;;6.72;6.03;;;7.40;87.10;;;;;;5061841;28;20047;-81
2022/03/28 00:30:39;;;;;;;10.20;6.43;;;7.40;86.90;;;;;;5061386;28;20035;-81
2022/03/28 00:33:05;;;;;;;9.43;6.80;;;7.40;87.00;;;;;;5061436;28;20036;-81
2022/03/28 00:35:31;;;;;;;8.40;6.93;;;7.30;87.30;;;;;;5057808;28;20058;-81
2022/03/28 00:37:57;;;;;;;9.18;7.40;;;7.30;87.40;;;;;;5041429;28;20047;-81
2022/03/28 00:40:27;;;;;;;8.23;6.57;;;7.20;87.80;;;;;;5057930;28;20037;-81
2022/03/28 00:42:54;;;;;;;12.32;8.15;;;7.20;88.00;;;;;;5058381;28;20048;-81
2022/03/28 00:45:20;;;;;;;9.77;7.20;;;7.10;88.00;;;;;;5074356;28;20051;-81
2022/03/28 00:47:46;;;;;;;7.18;6.45;;;7.10;88.40;;;;;;5074418;28;20044;-80
2022/03/28 00:50:12;;;;;;;11.02;8.30;;;7.10;88.40;;;;;;5074647;28;20037;-81
2022/03/28 00:52:39;;;;;;;9.57;8.52;;;7.10;88.30;;;;;;5074658;28;20477;-81
2022/03/28 00:55:07;;;;;;;11.82;9.30;;;7.10;87.90;;;;;;5074271;28;20037;-81
2022/03/28 00:57:34;;;;;;;11.63;9.25;;;7.10;87.70;;;;;;5074232;28;20040;-81
2022/03/28 01:00:01;;;;;;;11.35;9.32;;;7.10;87.60;;;;;;5074170;28;20040;-81
2022/03/28 01:02:27;;;;;;;10.75;8.07;;;7.10;87.80;;;;;;5074179;28;20040;-81
2022/03/28 01:04:53;;;;;;;13.38;10.00;;;7.10;88.00;;;;;;5057560;28;20036;-81
2022/03/28 01:07:19;;;;;;;11.48;9.13;;;7.10;87.70;;;;;;5040769;28;20417;-81
2022/03/28 01:09:45;;;;;;;14.48;10.23;;;7.10;87.80;;;;;;5041123;28;20040;-81
2022/03/28 01:12:11;;;;;;;11.35;9.27;;;7.00;88.00;;;;;;5074136;28;20050;-81
2022/03/28 01:14:38;;;;;;;12.23;9.48;;;7.00;87.80;;;;;;5056426;28;20036;-81
2022/03/28 01:19:55;;;;;;;11.65;9.05;;;7.00;87.60;;;;;;5073896;28;20129;-81
2022/03/28 01:22:21;;;;;;;11.20;8.70;;;7.10;87.40;;;;;;5073758;28;20043;-81
2022/03/28 01:24:47;;;;;;;13.55;9.57;;;7.10;87.20;;;;;;5057334;28;20048;-81
2022/03/28 01:27:14;;;;;;;11.25;9.32;;;7.10;87.60;;;;;;5073916;28;20040;-81
2022/03/28 01:29:44;;;;;;;12.35;9.43;;;7.10;87.70;;;;;;5073657;28;20059;-81
2022/03/28 01:32:11;;;;;;;10.93;9.63;;;7.20;87.40;;;;;;5057196;28;20043;-81
2022/03/28 01:34:38;;;;;;;14.85;9.43;;;7.20;87.40;;;;;;5056871;28;20190;-80
2022/03/28 01:37:04;;;;;;;15.25;9.48;;;7.10;87.80;;;;;;5056782;28;20056;-80
2022/03/28 01:39:31;;;;;;;10.32;8.40;;;7.10;87.50;;;;;;5056750;28;20101;-80
2022/03/28 01:41:57;;;;;;;11.40;8.15;;;7.10;88.00;;;;;;5056617;28;20503;-80
2022/03/28 01:44:23;;;;;;;13.75;9.30;;;7.10;88.00;;;;;;5073599;28;20044;-81
2022/03/28 01:46:49;;;;;;;10.93;8.75;;;7.10;88.00;;;;;;5073473;28;20396;-81
2022/03/28 01:49:18;;;;;;;11.10;7.93;;;7.10;88.00;;;;;;5073192;28;20036;-81
2022/03/28 01:51:45;;;;;;;11.38;8.15;;;7.10;87.50;;;;;;5056613;28;20083;-81
2022/03/28 01:54:11;;;;;;;11.80;8.95;;;7.20;87.40;;;;;;5073094;28;20138;-81
2022/03/28 01:56:37;;;;;;;15.40;8.90;;;7.10;87.50;;;;;;5073131;28;20123;-81
2022/03/28 01:59:05;;;;;;;11.93;8.80;;;7.10;87.50;;;;;;5056384;28;20048;-80
2022/03/28 02:01:31;;;;;;;9.95;8.20;;;7.10;87.80;;;;;;5072956;28;20049;-80
2022/03/28 02:03:57;;;;;;;11.20;8.98;;;7.10;87.70;;;;;;5056351;28;20185;-81
2022/03/28 02:06:23;;;;;;;9.35;8.23;;;7.10;87.60;;;;;;5073152;28;20503;-81
2022/03/28 02:08:50;;;;;;;13.05;8.65;;;7.10;87.90;;;;;;5056169;28;20505;-80
2022/03/28 02:11:16;;;;;;;13.75;9.13;;;7.10;88.00;;;;;;5056254;28;20044;-81
2022/03/28 02:13:41;;;;;;;12.57;9.13;;;7.10;88.00;;;;;;5072579;28;20036;-82
2022/03/28 02:16:08;;;;;;;10.68;7.53;;;7.10;87.90;;;;;;5056171;28;20042;-81
2022/03/28 02:18:34;;;;;;;9.55;6.15;;;7.10;88.20;;;;;;5072708;28;20051;-81
2022/03/28 02:20:59;;;;;;;9.73;5.28;;;7.10;87.80;;;;;;5072745;28;20433;-81
2022/03/28 02:23:26;;;;;;;10.63;5.40;;;7.10;87.70;;;;;;5039280;28;20123;-81
2022/03/28 02:25:51;;;;;;;9.55;5.18;;;7.10;87.50;;;;;;5055901;28;20144;-81
2022/03/28 02:28:17;;;;;;;10.32;6.55;;;7.10;87.40;;;;;;5056182;28;20114;-81
2022/03/28 02:30:43;;;;;;;9.50;5.05;;;7.10;87.40;;;;;;5039248;28;20048;-81
2022/03/28 02:33:09;;;;;;;10.07;6.38;;;7.00;87.30;;;;;;5055887;28;20044;-81
2022/03/28 02:35:35;;;;;;;8.02;5.28;;;7.10;87.20;;;;;;5055619;28;20079;-81
2022/03/28 02:38:01;;;;;;;7.80;5.25;;;7.10;87.20;;;;;;5055836;28;20032;-81
2022/03/28 02:40:28;;;;;;;9.07;5.53;;;7.00;87.30;;;;;;5055746;28;20040;-81
2022/03/28 02:42:58;;;;;;;7.75;5.93;;;7.00;87.30;;;;;;5055550;28;20045;-81
2022/03/28 02:45:32;;;;;;;7.03;5.32;;;7.00;87.50;;;;;;5072369;28;20448;-81
2022/03/28 02:47:59;;;;;;;9.75;5.80;;;7.00;87.50;;;;;;5055576;28;20044;-81
2022/03/28 02:50:29;;;;;;;6.85;5.80;;;7.00;87.40;;;;;;5072030;28;20048;-81
2022/03/28 02:52:55;;;;;;;8.75;6.20;;;7.00;87.60;;;;;;5072417;28;20402;-81
2022/03/28 02:55:21;;;;;;;7.82;5.13;;;7.00;87.40;;;;;;5072269;28;20094;-81
2022/03/28 02:57:47;;;;;;;9.05;5.85;;;7.00;87.40;;;;;;5072100;28;20044;-81
2022/03/28 03:00:14;;;;;;;7.18;5.05;;;7.00;87.40;;;;;;5055209;28;20076;-81
2022/03/28 03:02:42;;;;;;;5.38;4.80;;;6.90;87.40;;;;;;5072271;28;20091;-81
2022/03/28 03:05:09;;;;;;;6.70;5.40;;;6.90;87.50;;;;;;5071765;28;20037;-81
2022/03/28 03:07:35;;;;;;;8.27;4.78;;;6.90;87.50;;;;;;5071817;28;20072;-81
2022/03/28 03:10:01;;;;;;;4.20;3.60;;;6.90;87.60;;;;;;5072017;28;20135;-81
2022/03/28 03:12:26;;;;;;;6.65;4.00;;;6.90;87.50;;;;;;5055211;28;20186;-81
2022/03/28 03:14:52;;;;;;;6.20;4.05;;;6.90;87.40;;;;;;5072009;28;20032;-81
2022/03/28 03:17:19;;;;;;;6.07;4.22;;;6.90;87.40;;;;;;5055202;28;20110;-81
2022/03/28 03:19:45;;;;;;;4.65;3.72;;;6.90;87.50;;;;;;5071909;28;20040;-81
2022/03/28 03:22:14;;;;;;;7.60;4.22;;;6.80;87.90;;;;;;5071617;28;20041;-81
2022/03/28 03:24:43;;;;;;;6.13;4.25;;;6.80;87.60;;;;;;5054987;28;20044;-81
2022/03/28 03:27:08;;;;;;;6.45;4.45;;;6.80;87.70;;;;;;5055010;28;20118;-81
2022/03/28 03:29:35;;;;;;;6.78;3.83;;;6.70;87.70;;;;;;5071676;28;20545;-81
2022/03/28 03:32:01;;;;;;;6.15;4.20;;;6.80;87.60;;;;;;5054784;28;20488;-81
2022/03/28 03:34:27;;;;;;;5.65;4.15;;;6.70;87.80;;;;;;5040553;28;20040;-81
2022/03/28 03:36:53;;;;;;;8.60;5.30;;;6.70;87.80;;;;;;5057560;28;20500;-81
2022/03/28 03:39:21;;;;;;;6.88;4.90;;;6.70;87.90;;;;;;5058400;28;20083;-81
2022/03/28 03:41:46;;;;;;;7.20;5.30;;;6.70;88.20;;;;;;5058346;28;20508;-81
2022/03/28 03:44:12;;;;;;;5.10;4.20;;;6.70;88.60;;;;;;5058423;28;20079;-80
2022/03/28 03:46:38;;;;;;;6.50;4.95;;;6.60;88.40;;;;;;5074780;28;20430;-81
2022/03/28 03:49:04;;;;;;;9.15;4.30;;;6.60;88.50;;;;;;5058291;28;20123;-81
2022/03/28 03:51:30;;;;;;;5.82;3.90;;;6.60;88.60;;;;;;5074796;28;20102;-80
2022/03/28 03:53:55;;;;;;;5.25;3.90;;;6.60;88.50;;;;;;5058091;28;20044;-81
2022/03/28 03:56:21;;;;;;;7.45;4.35;;;6.50;88.60;;;;;;5074657;28;20084;-81
2022/03/28 03:58:47;;;;;;;6.22;3.83;;;6.60;88.50;;;;;;5057995;28;20040;-81
2022/03/28 04:01:13;;;;;;;5.45;3.70;;;6.60;89.00;;;;;;5057888;28;20048;-81
2022/03/28 04:03:39;;;;;;;8.35;3.88;;;6.60;89.30;;;;;;5041452;28;20043;-81
2022/03/28 04:06:05;;;;;;;5.57;3.80;;;6.60;88.90;;;;;;5074847;28;20403;-81
2022/03/28 04:08:31;;;;;;;8.88;3.90;;;6.60;88.60;;;;;;5074600;28;20040;-80
2022/03/28 04:11:00;;;;;;;6.18;3.80;;;6.60;89.20;;;;;;5074561;28;20043;-81
2022/03/28 04:13:26;;;;;;;7.18;3.55;;;6.50;88.60;;;;;;5058052;28;20070;-81
2022/03/28 04:15:51;;;;;;;5.70;3.70;;;6.60;88.50;;;;;;5040739;28;20540;-81
2022/03/28 04:18:17;;;;;;;7.70;4.15;;;6.60;88.50;;;;;;5057858;28;20044;-80
2022/03/28 04:20:43;;;;;;;8.35;4.65;;;6.60;89.10;;;;;;5074620;28;20420;-81
2022/03/28 04:23:08;;;;;;;8.65;4.55;;;6.60;88.70;;;;;;5074739;28;20051;-81
2022/03/28 04:25:34;;;;;;;6.10;4.22;;;6.60;88.60;;;;;;5074642;28;20541;-80
2022/03/28 04:28:00;;;;;;;5.45;4.10;;;6.60;88.70;;;;;;5057790;28;20119;-81
2022/03/28 04:30:26;;;;;;;8.27;4.93;;;6.60;88.40;;;;;;5074628;28;20101;-81
2022/03/28 04:32:52;;;;;;;5.53;4.20;;;6.60;88.30;;;;;;5041424;28;20485;-81
2022/03/28 04:35:21;;;;;;;7.28;4.38;;;6.60;88.20;;;;;;5040782;28;20063;-80
2022/03/28 04:37:47;;;;;;;7.53;4.90;;;6.60;87.90;;;;;;5057717;28;20043;-81
2022/03/28 04:40:16;;;;;;;6.03;4.93;;;6.60;87.90;;;;;;5057724;28;20047;-81
2022/03/28 04:42:42;;;;;;;7.47;5.53;;;6.60;88.10;;;;;;5074375;28;20043;-80
2022/03/28 04:45:08;;;;;;;7.97;5.18;;;6.50;88.40;;;;;;5057684;28;20028;-81
2022/03/28 04:47:34;;;;;;;7.03;4.82;;;6.50;88.80;;;;;;5074205;28;20039;-80
2022/03/28 04:50:00;;;;;;;6.32;4.45;;;6.40;88.90;;;;;;5077599;28;20043;-81
2022/03/28 04:52:26;;;;;;;8.43;5.53;;;6.40;89.00;;;;;;5061153;28;20484;-81
2022/03/28 04:54:52;;;;;;;9.35;5.53;;;6.40;89.20;;;;;;5061093;28;20036;-81
2022/03/28 04:57:18;;;;;;;6.85;5.90;;;6.40;88.90;;;;;;5060881;28;20032;-81
2022/03/28 04:59:44;;;;;;;7.10;5.07;;;6.40;88.90;;;;;;5044425;28;20097;-81
2022/03/28 05:02:09;;;;;;;6.88;5.10;;;6.40;88.60;;;;;;5077337;28;20036;-81
2022/03/28 05:04:35;;;;;;;8.68;6.32;;;6.40;88.80;;;;;;5077519;28;20119;-81
2022/03/28 05:07:01;;;;;;;6.38;5.35;;;6.30;88.90;;;;;;5060698;28;20032;-81
2022/03/28 05:09:27;;;;;;;8.00;6.18;;;6.30;89.50;;;;;;5077852;28;20392;-81
2022/03/28 05:11:53;;;;;;;6.70;5.68;;;6.30;89.50;;;;;;5060658;28;20047;-81
2022/03/28 05:14:21;;;;;;;6.30;4.85;;;6.30;89.40;;;;;;5077669;28;20442;-81
2022/03/28 05:16:47;;;;;;;4.55;4.07;;;6.30;89.20;;;;;;5077497;28;20040;-81
2022/03/28 05:19:12;;;;;;;6.43;4.93;;;6.30;89.30;;;;;;5077013;28;20445;-81
2022/03/28 05:21:38;;;;;;;7.70;5.93;;;6.30;89.20;;;;;;5027377;28;20040;-81
2022/03/28 05:24:04;;;;;;;7.65;6.30;;;6.30;89.10;;;;;;5077337;28;20039;-81
2022/03/28 05:26:30;;;;;;;7.68;6.15;;;6.30;89.30;;;;;;5077288;28;20365;-81
2022/03/28 05:28:55;;;;;;;7.72;6.07;;;6.30;89.50;;;;;;5027471;28;20040;-81
2022/03/28 05:31:22;;;;;;;8.70;5.85;;;6.30;89.20;;;;;;5060075;28;20055;-81
2022/03/28 05:33:48;;;;;;;9.55;6.90;;;6.30;89.20;;;;;;5060182;28;20040;-81
2022/03/28 05:36:14;;;;;;;6.13;5.40;;;6.30;89.10;;;;;;5076428;28;20389;-81
2022/03/28 05:38:40;;;;;;;8.02;6.55;;;6.30;89.00;;;;;;5060101;28;20040;-82
2022/03/28 05:41:06;;;;;;;10.18;6.90;;;6.30;89.20;;;;;;5076794;28;20044;-82
2022/03/28 05:43:37;;;;;;;7.45;5.68;;;6.30;89.20;;;;;;5076789;28;20048;-81
2022/03/28 05:46:03;;;;;;;9.45;7.35;;;6.40;88.70;;;;;;5060498;28;20040;-82
2022/03/28 05:48:29;;;;;;;9.43;6.90;;;6.40;88.80;;;;;;5077012;28;20384;-83
2022/03/28 05:50:56;;;;;;;8.70;5.75;;;6.40;89.20;;;;;;5076663;28;20089;-81
2022/03/28 05:53:21;;;;;;;9.40;7.10;;;6.30;89.50;;;;;;5059814;28;20059;-82
2022/03/28 05:55:48;;;;;;;9.38;7.40;;;6.30;89.80;;;;;;5075935;28;20110;-82
2022/03/28 05:58:14;;;;;;;9.75;6.68;;;6.30;89.90;;;;;;5068347;28;20060;-83
2022/03/28 06:00:40;;;;;;;9.73;6.93;;;6.40;89.60;;;;;;5065869;28;20044;-83
2022/03/28 06:03:08;;;;;;;10.48;6.63;;;6.40;89.30;;;;;;5081392;28;20127;-84
2022/03/28 06:05:36;;;;;;;10.40;6.55;;;6.40;89.30;;;;;;5062882;28;20468;-84
2022/03/28 06:08:07;;;;;;;9.02;7.05;;;6.40;89.10;;;;;;5076947;28;20040;-82
2022/03/28 06:10:33;;;;;;;9.52;7.68;;;6.40;89.10;;;;;;5076970;28;20045;-84
2022/03/28 06:12:59;;;;;;;10.63;5.68;;;6.40;89.30;;;;;;5046617;28;20040;-82
2022/03/28 06:15:24;;;;;;;7.30;5.30;;;6.40;89.20;;;;;;5065299;28;20047;-83
2022/03/28 06:17:50;;;;;;;8.60;6.22;;;6.40;89.00;;;;;;5045920;28;20047;-83
2022/03/28 06:20:16;;;;;;;10.05;6.63;;;6.40;89.10;;;;;;5080939;28;20160;-83
2022/03/28 06:22:42;;;;;;;8.50;6.88;;;6.40;89.20;;;;;;5061037;28;20059;-83
2022/03/28 06:25:08;;;;;;;9.10;6.85;;;6.40;89.40;;;;;;5047741;28;20530;-82
2022/03/28 06:27:41;;;;;;;7.60;6.80;;;6.40;89.10;;;;;;5059590;28;20036;-83
2022/03/28 06:30:09;;;;;;;10.43;7.82;;;6.40;89.20;;;;;;5082870;28;20122;-84
2022/03/28 06:32:37;;;;;;;8.10;6.15;;;6.40;89.30;;;;;;5079627;28;20048;-82
2022/03/28 06:35:06;;;;;;;10.10;6.95;;;6.50;89.50;;;;;;5057776;28;20053;-82
2022/03/28 06:37:33;;;;;;;13.32;7.90;;;6.50;89.60;;;;;;5084308;28;20126;-82
2022/03/28 06:39:59;;;;;;;9.13;7.25;;;6.50;89.60;;;;;;5062426;28;20040;-82
2022/03/28 06:42:26;;;;;;;11.38;8.05;;;6.50;89.80;;;;;;5028980;28;20454;-84
2022/03/28 06:44:54;;;;;;;11.05;7.57;;;6.50;89.30;;;;;;5085039;28;20051;-83
2022/03/28 06:47:20;;;;;;;9.43;6.40;;;6.50;89.10;;;;;;5045768;28;20086;-85
2022/03/28 06:49:45;;;;;;;10.27;7.13;;;6.50;89.20;;;;;;5063747;28;20049;-82
2022/03/28 06:52:11;;;;;;;9.82;6.95;;;6.50;89.20;;;;;;5057957;28;20044;-82
2022/03/28 06:54:37;;;;;;;8.07;6.70;;;6.50;88.80;;;;;;5062986;28;20455;-83
2022/03/28 06:57:03;;;;;;;9.55;6.43;;;6.50;88.80;;;;;;5059330;28;20047;-81
2022/03/28 06:59:29;;;;;;;8.55;5.95;;;6.50;89.30;;;;;;5066743;28;20040;-81
2022/03/28 07:01:56;;;;;;;8.10;6.40;;;6.50;89.30;;;;;;5079928;28;20456;-82
2022/03/28 07:04:23;;;;;;;10.93;6.65;;;6.60;89.10;;;;;;5067014;28;20096;-81
2022/03/28 07:06:49;;;;;;;9.43;6.30;;;6.60;89.00;;;;;;5078260;28;20054;-83
2022/03/28 07:09:15;;;;;;;8.25;5.00;;;6.60;88.80;;;;;;5085914;28;20071;-81
2022/03/28 07:11:41;;;;;;;7.03;4.53;;;6.60;89.30;;;;;;5052973;28;20064;-82
2022/03/28 07:14:07;;;;;;;8.20;4.63;;;6.50;89.40;;;;;;5079530;28;20042;-82
2022/03/28 07:16:34;;;;;;;6.80;5.13;;;6.60;89.50;;;;;;5056635;28;20040;-82
2022/03/28 07:19:00;;;;;;;7.35;4.20;;;6.60;89.50;;;;;;5092708;28;20415;-81
2022/03/28 07:21:27;;;;;;;4.53;3.55;;;6.60;89.10;;;;;;5095163;28;20083;-82
2022/03/28 07:23:53;;;;;;;6.85;3.97;;;6.70;89.20;;;;;;5095291;28;20043;-82
2022/03/28 07:26:20;;;;;;;5.70;3.90;;;6.70;89.20;;;;;;5095418;28;20039;-83
2022/03/28 07:28:46;;;;;;;9.07;4.43;;;6.70;88.90;;;;;;5078424;28;20472;-83
2022/03/28 07:31:12;;;;;;;7.05;4.00;;;6.70;89.00;;;;;;5078673;28;20036;-80
2022/03/28 07:33:41;;;;;;;6.85;3.90;;;6.70;89.30;;;;;;5078688;28;20416;-84
2022/03/28 07:36:08;;;;;;;6.07;3.15;;;6.80;89.10;;;;;;5095218;28;20059;-84
2022/03/28 07:38:35;;;;;;;4.80;3.22;;;6.80;88.80;;;;;;5095140;28;20055;-83
2022/03/28 07:41:01;;;;;;;5.07;3.15;;;6.90;88.80;;;;;;5095061;28;20046;-83
2022/03/28 07:43:27;;;;;;;4.63;3.10;;;6.90;88.90;;;;;;5045272;28;20035;-83
2022/03/28 07:45:54;;;;;;;4.90;3.33;;;6.80;88.90;;;;;;5078483;28;20058;-83
2022/03/28 07:48:21;;;;;;;5.35;3.03;;;6.80;89.00;;;;;;5078185;28;20075;-83
2022/03/28 07:50:47;;;;;;;3.58;2.72;;;6.90;89.30;;;;;;5078319;28;20050;-83
2022/03/28 07:53:14;;;;;;;4.15;3.00;;;6.90;89.00;;;;;;5078217;28;20104;-84
2022/03/28 07:55:40;;;;;;;4.32;3.15;;;6.80;89.10;;;;;;5078398;28;20044;-83
2022/03/28 07:58:10;;;;;;;5.72;3.15;;;6.90;89.10;;;;;;5095292;28;20429;-83
2022/03/28 08:00:37;;;;;;;5.63;3.28;;;6.90;89.40;;;;;;5078117;28;20131;-83
2022/03/28 08:03:04;;;;;;;5.38;3.50;;;7.00;89.40;;;;;;5094771;28;20043;-84
2022/03/28 08:05:30;;;;;;;6.20;3.60;;;7.00;89.30;;;;;;5077961;28;20040;-82
2022/03/28 08:07:56;;;;;;;6.03;4.47;;;7.00;89.10;;;;;;5095144;28;20032;-83
2022/03/28 08:10:23;;;;;;;6.28;3.38;;;7.10;88.80;;;;;;5094860;28;20476;-82
2022/03/28 08:12:49;;;;;;;8.68;3.28;;;7.10;89.10;;;;;;5095200;28;20074;-81
2022/03/28 08:15:16;;;;;;;6.05;3.58;;;7.00;89.00;;;;;;5095063;28;20487;-81
2022/03/28 08:17:42;;;;;;;6.45;3.75;;;7.10;88.70;;;;;;5094916;28;20084;-81
2022/03/28 08:20:10;;;;;;;5.22;3.47;;;7.10;88.70;;;;;;5078297;28;20082;-81
2022/03/28 08:22:37;;;;;;;7.22;3.38;;;7.10;88.50;;;;;;5079103;28;20383;-80
2022/03/28 08:25:04;;;;;;;5.88;3.53;;;7.10;88.60;;;;;;5048620;28;20070;-81
2022/03/28 08:27:30;;;;;;;6.55;4.32;;;7.00;88.80;;;;;;5064623;28;20131;-83
2022/03/28 08:29:56;;;;;;;8.07;4.55;;;7.10;88.70;;;;;;5065231;28;20122;-83
2022/03/28 08:32:21;;;;;;;13.93;5.35;;;7.10;89.00;;;;;;5098393;28;20504;-83
2022/03/28 08:34:48;;;;;;;6.57;4.40;;;7.10;88.80;;;;;;5048046;28;20130;-81
2022/03/28 08:37:18;;;;;;;6.72;3.97;;;7.10;88.90;;;;;;5064803;28;20188;-84
2022/03/28 08:39:45;;;;;;;6.28;4.25;;;7.20;88.90;;;;;;5098338;28;20046;-82
2022/03/28 08:42:12;;;;;;;7.70;4.28;;;7.20;88.90;;;;;;5098247;28;20542;-84
2022/03/28 08:44:41;;;;;;;6.65;4.65;;;7.20;88.80;;;;;;5081695;28;20337;-83
2022/03/28 08:47:12;;;;;;;5.97;4.72;;;7.10;88.50;;;;;;5098344;28;20143;-81
2022/03/28 08:49:38;;;;;;;8.43;5.75;;;7.20;88.60;;;;;;5098468;28;20040;-82
2022/03/28 08:52:05;;;;;;;7.60;5.70;;;7.30;88.50;;;;;;5081203;28;20402;-81
2022/03/28 08:54:31;;;;;;;8.90;6.43;;;7.30;88.50;;;;;;5064747;28;20049;-81
2022/03/28 08:56:57;;;;;;;8.82;6.15;;;7.30;88.30;;;;;;5097737;28;20051;-82
2022/03/28 08:59:23;;;;;;;10.52;7.13;;;7.30;88.30;;;;;;5080858;28;20044;-81
2022/03/28 09:01:49;;;;;;;10.48;7.15;;;7.40;88.30;;;;;;5081060;28;20126;-82
2022/03/28 09:04:15;;;;;;;11.68;8.93;;;7.50;88.20;;;;;;5080981;28;20043;-82
2022/03/28 09:06:43;;;;;;;9.57;7.50;;;7.50;88.00;;;;;;5081173;28;20415;-82
2022/03/28 09:09:12;;;;;;;13.15;9.23;;;7.40;88.10;;;;;;5081141;28;20035;-82
2022/03/28 09:11:38;;;;;;;9.30;6.97;;;7.50;88.20;;;;;;5080884;28;20035;-83
2022/03/28 09:14:04;;;;;;;12.95;9.65;;;7.60;88.10;;;;;;5097608;28;20048;-82
2022/03/28 09:16:34;;;;;;;11.50;8.52;;;7.60;88.20;;;;;;5080757;28;20123;-82
2022/03/28 09:19:10;;;;;;;11.57;8.63;;;7.60;88.00;;;;;;5097883;28;20039;-82
2022/03/28 09:21:36;;;;;;;10.60;9.10;;;7.70;87.90;;;;;;5080731;28;20130;-81
2022/03/28 09:24:09;;;;;;;12.50;8.77;;;7.80;87.70;;;;;;5097485;28;20092;-83
2022/03/28 09:26:35;;;;;;;15.07;9.88;;;7.80;87.60;;;;;;5080720;28;20028;-81
2022/03/28 09:29:03;;;;;;;9.93;7.55;;;7.90;87.50;;;;;;5080392;28;20161;-81
2022/03/28 09:31:36;;;;;;;11.38;9.65;;;7.90;87.30;;;;;;5097575;28;20058;-82
2022/03/28 09:34:09;;;;;;;12.30;9.63;;;7.90;87.10;;;;;;5096693;28;20556;-82
2022/03/28 09:36:49;;;;;;;13.27;10.50;;;7.90;87.10;;;;;;5091688;28;20067;-84
2022/03/28 09:39:16;;;;;;;10.45;8.00;;;8.00;87.20;;;;;;5094056;28;20048;-83
2022/03/28 09:41:44;;;;;;;9.57;7.40;;;8.00;87.10;;;;;;5093679;28;20047;-81
2022/03/28 09:44:10;;;;;;;13.07;10.05;;;8.10;87.00;;;;;;5060214;28;20043;-82
2022/03/28 09:46:37;;;;;;;10.73;8.45;;;8.10;86.90;;;;;;5060124;28;20039;-82
2022/03/28 09:49:04;;;;;;;12.45;9.05;;;8.20;86.70;;;;;;5077033;28;20044;-82
2022/03/28 09:51:31;;;;;;;11.88;9.57;;;8.20;86.50;;;;;;5093492;28;20488;-81
2022/03/28 09:53:59;;;;;;;12.75;9.77;;;8.30;86.40;;;;;;5093502;28;20097;-82
2022/03/28 09:56:25;;;;;;;11.50;8.43;;;8.20;86.10;;;;;;5043399;28;20132;-82
2022/03/28 09:59:01;;;;;;;14.25;10.40;;;8.30;86.20;;;;;;5060214;28;20035;-82
2022/03/28 10:01:40;;;;;;;11.77;8.50;;;8.30;86.00;;;;;;5076493;28;20123;-82
2022/03/28 10:04:10;;;;;;;11.50;9.63;;;8.40;86.20;;;;;;5060540;28;20357;-83
2022/03/28 10:06:38;;;;;;;10.70;9.55;;;8.40;86.10;;;;;;5076648;28;20040;-82
2022/03/28 10:09:07;;;;;;;10.65;8.00;;;8.40;85.70;;;;;;5093187;28;20085;-80
2022/03/28 10:11:34;;;;;;;14.00;10.60;;;8.50;86.00;;;;;;5093437;28;20044;-82
2022/03/28 10:14:00;;;;;;;11.75;9.98;;;8.50;85.60;;;;;;5076306;28;20036;-81
2022/03/28 10:16:26;;;;;;;11.73;9.68;;;8.50;85.60;;;;;;5092939;28;20072;-82
2022/03/28 10:18:52;;;;;;;14.48;10.90;;;8.60;85.50;;;;;;5059767;28;20039;-82
2022/03/28 10:21:27;;;;;;;15.45;10.68;;;8.70;85.50;;;;;;5093155;28;20458;-81
2022/03/28 10:24:09;;;;;;;14.65;10.50;;;8.60;84.70;;;;;;5076083;28;20393;-81
2022/03/28 10:26:38;;;;;;;13.07;10.32;;;8.60;84.90;;;;;;5087334;28;20036;-80
2022/03/28 10:29:10;;;;;;;12.77;9.77;;;8.50;84.70;;;;;;5082092;28;20400;-81
2022/03/28 10:32:00;;;;;;;11.77;9.38;;;8.50;84.90;;;;;;5078586;28;20133;-83
2022/03/28 10:35:04;;;;;;;13.65;9.50;;;8.60;85.10;;;;;;5095725;28;20047;-81
2022/03/28 10:37:48;;;;;;;12.48;10.77;;;8.70;85.00;;;;;;5097805;28;20047;-82
2022/03/28 10:40:30;;;;;;;14.35;10.77;;;8.80;84.80;;;;;;5063764;28;20503;-82
2022/03/28 10:43:11;;;;;;;12.68;9.52;;;8.80;84.60;;;;;;5079178;28;20047;-80
2022/03/28 10:45:44;;;;;;;12.15;9.48;;;8.90;84.60;;;;;;5078881;28;20479;-81
2022/03/28 10:48:10;;;;;;;12.45;10.65;;;9.00;84.00;;;;;;5079365;28;20039;-81
2022/03/28 10:50:48;;;;;;;13.05;10.73;;;8.90;84.10;;;;;;5078965;28;20039;-81
2022/03/28 10:53:17;;;;;;;11.57;9.93;;;8.90;84.00;;;;;;5096063;28;20043;-82
2022/03/28 10:55:56;;;;;;;13.10;10.75;;;9.00;84.30;;;;;;5095752;28;20039;-82
2022/03/28 10:58:32;;;;;;;12.40;11.10;;;9.00;84.20;;;;;;5095742;28;20534;-81
2022/03/28 11:01:13;;;;;;;11.50;10.32;;;8.90;84.00;;;;;;5078960;28;20039;-82
2022/03/28 11:04:00;;;;;;;14.50;11.63;;;8.90;84.10;;;;;;5095840;28;20395;-82
2022/03/28 11:06:52;;;;;;;11.23;9.57;;;8.90;84.20;;;;;;5078615;28;20479;-82
2022/03/28 11:09:41;;;;;;;12.82;10.35;;;8.90;83.90;;;;;;5078699;28;20039;-82
2022/03/28 11:12:14;;;;;;;15.13;11.15;;;9.00;84.00;;;;;;5078756;28;20075;-81
2022/03/28 11:14:44;;;;;;;16.33;11.10;;;9.00;83.40;;;;;;5078473;28;20039;-83
2022/03/28 11:17:17;;;;;;;13.18;11.80;;;9.10;83.90;;;;;;5078448;28;20035;-83
2022/03/28 11:19:55;;;;;;;11.40;10.10;;;9.30;83.90;;;;;;5078868;28;20076;-81
2022/03/28 11:22:55;;;;;;;14.05;11.98;;;9.30;83.80;;;;;;5078404;28;20496;-81
2022/03/28 11:25:31;;;;;;;12.13;10.82;;;9.40;83.60;;;;;;5078563;28;20039;-83
2022/03/28 11:28:12;;;;;;;13.68;9.82;;;9.50;83.30;;;;;;5078605;28;20558;-81
2022/03/28 11:30:45;;;;;;;13.38;11.95;;;9.40;82.50;;;;;;5095557;28;20396;-81
2022/03/28 11:33:12;;;;;;;14.23;11.77;;;9.50;82.70;;;;;;5095632;28;20092;-81
2022/03/28 11:35:39;;;;;;;16.25;11.85;;;9.50;82.90;;;;;;5094986;28;20106;-81
2022/03/28 11:38:06;;;;;;;15.93;11.50;;;9.60;82.90;;;;;;5078447;28;20486;-83
2022/03/28 11:40:42;;;;;;;14.05;11.10;;;9.70;83.10;;;;;;5061921;28;20032;-82
2022/03/28 11:43:09;;;;;;;15.93;11.95;;;9.70;82.20;;;;;;5095138;28;20475;-83
2022/03/28 11:45:37;;;;;;;14.02;12.38;;;9.70;81.50;;;;;;5095246;28;20383;-82
2022/03/28 11:48:03;;;;;;;20.70;13.18;;;9.70;82.20;;;;;;5095095;28;20036;-82
2022/03/28 11:50:30;;;;;;;15.77;11.20;;;9.70;82.30;;;;;;5061538;28;20036;-83
2022/03/28 11:52:57;;;;;;;12.15;10.60;;;9.80;82.40;;;;;;5078186;28;20035;-82
2022/03/28 11:55:25;;;;;;;14.30;12.25;;;10.00;82.50;;;;;;5094962;28;20395;-82
2022/03/28 12:00:39;;;;;;;15.50;11.55;;;10.20;82.10;;;;;;5098997;28;20048;-82
2022/03/28 12:03:05;;;;;;;12.55;10.60;;;10.20;81.50;;;;;;5082125;28;20043;-83
2022/03/28 12:05:43;;;;;;;13.07;11.73;;;10.30;81.30;;;;;;5065498;28;20369;-82
2022/03/28 12:08:18;;;;;;;13.98;12.15;;;10.40;81.20;;;;;;5099182;28;20047;-81
2022/03/28 12:10:49;;;;;;;14.68;12.38;;;10.30;81.00;;;;;;5065209;28;20055;-81
2022/03/28 12:13:16;;;;;;;15.43;13.05;;;10.30;81.20;;;;;;5098787;28;20040;-82
2022/03/28 12:15:47;;;;;;;13.38;11.65;;;10.40;81.10;;;;;;5081614;28;20044;-83
2022/03/28 12:18:16;;;;;;;14.48;12.80;;;10.50;79.80;;;;;;5065701;28;20043;-82
2022/03/28 12:20:48;;;;;;;13.48;12.15;;;10.50;79.50;;;;;;5098662;28;20046;-82
2022/03/28 12:23:16;;;;;;;12.35;10.60;;;10.50;80.00;;;;;;5098853;28;20122;-82
2022/03/28 12:25:45;;;;;;;13.48;12.07;;;10.60;79.80;;;;;;5081438;28;20074;-83
2022/03/28 12:28:16;;;;;;;14.23;12.25;;;10.60;79.40;;;;;;5098695;28;20444;-82
2022/03/28 12:30:47;;;;;;;12.98;11.57;;;10.70;79.10;;;;;;5098533;28;20039;-82
2022/03/28 12:33:26;;;;;;;15.20;12.98;;;10.60;79.00;;;;;;5098505;28;20582;-81
2022/03/28 12:36:00;;;;;;;15.38;13.00;;;10.70;79.20;;;;;;5094698;28;20048;-83
2022/03/28 12:38:31;;;;;;;14.75;11.82;;;10.70;78.90;;;;;;5078068;28;20488;-82
2022/03/28 12:41:04;;;;;;;17.60;13.27;;;10.70;78.20;;;;;;5094964;28;20047;-82
2022/03/28 12:43:31;;;;;;;16.80;13.60;;;10.60;78.70;;;;;;5095172;28;20499;-83
2022/03/28 12:45:59;;;;;;;16.00;13.23;;;10.70;79.20;;;;;;5078037;28;20036;-83
2022/03/28 12:48:44;;;;;;;15.10;13.55;;;10.90;79.50;;;;;;5095165;28;20070;-82
2022/03/28 12:51:12;;;;;;;17.00;13.15;;;11.20;79.70;;;;;;5077855;28;20043;-83
2022/03/28 12:53:39;;;;;;;15.10;13.43;;;11.50;79.10;;;;;;5078117;28;20051;-82
2022/03/28 12:56:20;;;;;;;15.77;14.13;;;11.60;78.90;;;;;;5094592;28;20040;-82
2022/03/28 12:58:54;;;;;;;15.98;13.60;;;11.60;78.60;;;;;;5078061;28;20066;-82
2022/03/28 13:01:29;;;;;;;17.17;13.82;;;11.70;78.60;;;;;;5077419;28;20097;-82